Time;durP1;ratioP1;P1;durP2;ratioP2;P2;SDS_P1;SDS_P2;PMS_P1;PMS_P2;Temp;Humidity;BMP_temperature;BMP_pressure;BME280_temperature;BME280_humidity;BME280_pressure;Samples;Min_cycle;Max_cycle;Signal;HPM_P1;HPM_P2
2024/01/10 00:02:13;;;;;;;13.93;4.75;;;;;;;-5.09;100.00;102770.25;6248077;22;20004;-93
2024/01/10 00:04:39;;;;;;;11.63;3.95;;;;;;;-5.14;100.00;102778.19;6240812;23;20004;-93
2024/01/10 00:07:05;;;;;;;13.15;4.18;;;;;;;-5.21;100.00;102762.94;6202800;23;20004;-93
2024/01/10 00:09:30;;;;;;;10.40;3.83;;;;;;;-5.29;100.00;102764.59;6225903;23;20000;-92
2024/01/10 00:11:56;;;;;;;11.13;3.75;;;;;;;-5.29;100.00;102753.91;6223526;23;20151;-92
2024/01/10 00:14:21;;;;;;;10.55;4.45;;;;;;;-5.36;100.00;102750.25;6196333;23;20113;-87
2024/01/10 00:16:47;;;;;;;12.48;4.00;;;;;;;-5.35;100.00;102762.69;6195899;23;20012;-87
2024/01/10 00:19:12;;;;;;;12.70;4.22;;;;;;;-5.40;100.00;102761.72;6195669;23;20065;-86
2024/01/10 00:21:38;;;;;;;7.78;3.65;;;;;;;-5.47;100.00;102750.03;6221085;23;20022;-86
2024/01/10 00:24:03;;;;;;;8.73;3.92;;;;;;;-5.36;100.00;102759.13;6220131;23;20008;-87
2024/01/10 00:26:29;;;;;;;9.57;4.90;;;;;;;-5.46;100.00;102749.19;6220438;23;20089;-86
2024/01/10 00:28:54;;;;;;;9.82;4.53;;;;;;;-5.46;100.00;102753.59;6196287;23;20099;-87
2024/01/10 00:31:21;;;;;;;9.20;4.03;;;;;;;-5.51;100.00;102740.16;6196147;23;20525;-86
2024/01/10 00:33:46;;;;;;;13.13;4.60;;;;;;;-5.50;100.00;102741.97;6196029;23;20012;-86
2024/01/10 00:36:12;;;;;;;8.50;3.85;;;;;;;-5.54;100.00;102748.13;6196709;23;20467;-88
2024/01/10 00:38:39;;;;;;;12.70;4.40;;;;;;;-5.55;100.00;102741.88;6222237;23;20026;-88
2024/01/10 00:41:05;;;;;;;11.80;4.28;;;;;;;-5.49;100.00;102749.13;6246447;23;20089;-87
2024/01/10 00:43:31;;;;;;;12.55;4.63;;;;;;;-5.51;100.00;102741.94;6221162;23;20502;-87
2024/01/10 00:45:57;;;;;;;11.50;4.35;;;;;;;-5.57;100.00;102735.63;6196702;23;20028;-88
2024/01/10 00:48:24;;;;;;;14.68;4.80;;;;;;;-5.56;100.00;102732.09;6196268;23;20038;-88
2024/01/10 00:50:50;;;;;;;10.00;4.72;;;;;;;-5.58;100.00;102738.25;6219910;23;20367;-86
2024/01/10 00:53:15;;;;;;;12.55;5.32;;;;;;;-5.63;100.00;102734.63;6220106;23;20015;-87
2024/01/10 00:55:42;;;;;;;13.10;4.75;;;;;;;-5.62;100.00;102739.09;6245179;23;20004;-86
2024/01/10 00:58:07;;;;;;;11.15;4.60;;;;;;;-5.66;100.00;102727.44;6195778;23;20016;-87
2024/01/10 01:00:33;;;;;;;14.73;4.20;;;;;;;-5.61;100.00;102735.53;6250036;23;20408;-88
2024/01/10 01:02:59;;;;;;;9.18;3.38;;;;;;;-5.63;100.00;102740.84;6224638;23;20039;-88
2024/01/10 01:05:25;;;;;;;7.88;3.90;;;;;;;-5.67;100.00;102728.34;6197556;23;20008;-87
2024/01/10 01:07:51;;;;;;;12.52;3.80;;;;;;;-5.71;100.00;102737.13;6198512;23;20004;-87
2024/01/10 01:10:17;;;;;;;13.05;4.45;;;;;;;-5.72;100.00;102735.34;6221922;23;20019;-87
2024/01/10 01:12:42;;;;;;;9.27;3.70;;;;;;;-5.60;100.00;102740.91;6220205;23;20012;-87
2024/01/10 01:15:10;;;;;;;9.75;3.88;;;;;;;-5.59;100.00;102741.78;6195114;23;20177;-87
2024/01/10 01:17:35;;;;;;;11.00;4.07;;;;;;;-5.72;100.00;102730.91;6245750;23;20011;-87
2024/01/10 01:20:02;;;;;;;9.23;4.10;;;;;;;-5.69;100.00;102734.50;6220283;23;20008;-87
2024/01/10 01:22:27;;;;;;;8.07;3.55;;;;;;;-5.80;100.00;102731.66;6220845;23;20058;-86
2024/01/10 01:24:53;;;;;;;10.80;4.78;;;;;;;-5.86;100.00;102729.75;6195459;23;20008;-85
2024/01/10 01:27:18;;;;;;;8.27;4.03;;;;;;;-5.96;100.00;102730.47;6195201;23;20007;-87
2024/01/10 01:29:44;;;;;;;9.73;4.10;;;;;;;-5.92;100.00;102725.22;6195209;23;20098;-87
2024/01/10 01:32:09;;;;;;;11.45;4.82;;;;;;;-5.97;100.00;102726.00;6194205;23;20096;-86
2024/01/10 01:34:35;;;;;;;7.30;3.97;;;;;;;-6.00;100.00;102736.59;6219704;23;20012;-85
2024/01/10 01:37:01;;;;;;;12.57;4.43;;;;;;;-6.06;100.00;102741.84;6194766;23;20099;-85
2024/01/10 01:39:27;;;;;;;11.20;4.72;;;;;;;-6.02;100.00;102741.91;6220548;23;20030;-86
2024/01/10 01:41:54;;;;;;;11.73;4.57;;;;;;;-5.97;100.00;102747.34;6194023;23;20391;-86
2024/01/10 01:44:19;;;;;;;13.35;4.60;;;;;;;-6.06;100.00;102739.16;6219949;23;20802;-86
2024/01/10 01:46:47;;;;;;;14.45;4.10;;;;;;;-6.15;100.00;102739.88;6218810;23;20035;-85
2024/01/10 01:49:14;;;;;;;14.85;4.00;;;;;;;-6.20;100.00;102734.44;6219563;23;20008;-85
2024/01/10 01:51:40;;;;;;;10.95;3.55;;;;;;;-6.15;100.00;102735.44;6218957;23;20008;-84
2024/01/10 01:54:14;;;;;;;9.45;4.07;;;;;;;-6.24;100.00;102735.25;6245169;22;20027;-85
2024/01/10 01:56:44;;;;;;;10.25;4.70;;;;;;;-6.25;100.00;102732.56;6245592;22;20048;-85
2024/01/10 01:59:11;;;;;;;11.63;3.40;;;;;;;-6.22;100.00;102735.28;6244249;23;20008;-85
2024/01/10 02:01:36;;;;;;;9.65;4.10;;;;;;;-6.35;100.00;102719.03;6218629;23;20035;-86
2024/01/10 02:04:05;;;;;;;9.50;4.40;;;;;;;-6.33;100.00;102733.31;6219661;23;20015;-88
2024/01/10 02:06:31;;;;;;;11.15;4.20;;;;;;;-6.36;100.00;102724.31;6246238;23;20026;-87
2024/01/10 02:08:57;;;;;;;9.23;3.92;;;;;;;-6.30;100.00;102724.44;6245314;23;20024;-87
2024/01/10 02:11:25;;;;;;;9.73;3.83;;;;;;;-6.33;100.00;102711.06;6247354;22;20088;-87
2024/01/10 02:13:54;;;;;;;11.10;4.03;;;;;;;-6.26;100.00;102717.41;6220345;23;20012;-87
2024/01/10 02:16:20;;;;;;;11.10;4.72;;;;;;;-6.26;100.00;102720.06;6220737;23;20019;-87
2024/01/10 02:18:45;;;;;;;10.07;4.47;;;;;;;-6.26;100.00;102718.34;6220589;23;20004;-86
2024/01/10 02:21:11;;;;;;;7.13;3.83;;;;;;;-6.25;100.00;102724.56;6220428;23;20325;-87
2024/01/10 02:23:36;;;;;;;11.25;4.20;;;;;;;-6.25;100.00;102719.22;6195996;23;20515;-87
2024/01/10 02:26:02;;;;;;;8.55;3.85;;;;;;;-6.08;100.00;102708.88;6199000;23;20035;-87
2024/01/10 02:28:27;;;;;;;12.20;4.20;;;;;;;-6.15;100.00;102707.88;6214873;23;20008;-86
2024/01/10 02:30:54;;;;;;;11.40;4.43;;;;;;;-6.08;100.00;102699.16;6244384;23;20005;-86
2024/01/10 02:33:20;;;;;;;10.30;4.25;;;;;;;-6.16;100.00;102706.09;6251198;23;20010;-89
2024/01/10 02:35:45;;;;;;;13.68;3.92;;;;;;;-6.07;100.00;102697.38;6209446;23;20013;-90
2024/01/10 02:38:10;;;;;;;8.70;4.00;;;;;;;-6.15;100.00;102702.53;6229475;23;20093;-90
2024/01/10 02:40:36;;;;;;;8.40;3.70;;;;;;;-6.24;100.00;102705.94;6198118;23;20012;-90
2024/01/10 02:43:02;;;;;;;12.05;4.05;;;;;;;-6.12;100.00;102703.50;6196842;23;20023;-91
2024/01/10 02:45:27;;;;;;;9.75;4.28;;;;;;;-6.18;100.00;102699.81;6196700;23;20494;-92
2024/01/10 02:47:53;;;;;;;7.78;3.58;;;;;;;-6.16;100.00;102698.09;6196836;23;20008;-93
2024/01/10 02:50:18;;;;;;;12.10;4.60;;;;;;;-6.19;100.00;102698.91;6221629;23;20008;-91
2024/01/10 02:52:44;;;;;;;12.23;3.92;;;;;;;-6.19;100.00;102700.69;6196720;23;20008;-91
2024/01/10 02:55:09;;;;;;;10.82;4.10;;;;;;;-6.18;100.00;102703.41;6221498;23;20016;-91
2024/01/10 02:57:35;;;;;;;8.88;3.97;;;;;;;-6.24;100.00;102686.38;6196560;23;20090;-91
2024/01/10 03:00:00;;;;;;;8.75;4.13;;;;;;;-6.22;100.00;102697.97;6197309;23;20004;-92
2024/01/10 03:02:26;;;;;;;13.85;4.13;;;;;;;-6.24;100.00;102699.72;6197618;23;20031;-92
2024/01/10 03:04:51;;;;;;;12.07;3.55;;;;;;;-6.24;100.00;102697.94;6221874;23;20098;-91
2024/01/10 03:07:17;;;;;;;9.18;3.67;;;;;;;-6.23;100.00;102689.09;6221079;23;20008;-91
2024/01/10 03:09:43;;;;;;;8.25;3.97;;;;;;;-6.25;100.00;102693.47;6196431;23;20009;-91
2024/01/10 03:12:12;;;;;;;17.23;3.97;;;;;;;-6.23;100.00;102710.41;6221460;23;20009;-90
2024/01/10 03:14:37;;;;;;;11.18;3.50;;;;;;;-6.23;100.00;102705.06;6222071;23;20012;-90
2024/01/10 03:17:03;;;;;;;12.68;4.95;;;;;;;-6.26;100.00;102699.69;6196551;23;20012;-90
2024/01/10 03:19:28;;;;;;;13.07;4.57;;;;;;;-6.26;100.00;102699.69;6196483;23;20012;-91
2024/01/10 03:21:54;;;;;;;9.57;4.10;;;;;;;-6.26;100.00;102678.34;6196012;23;20015;-90
2024/01/10 03:24:19;;;;;;;16.15;4.40;;;;;;;-6.28;100.00;102683.66;6196315;23;20018;-90
2024/01/10 03:26:45;;;;;;;10.27;3.63;;;;;;;-6.24;100.00;102679.28;6198528;23;20024;-91
2024/01/10 03:29:10;;;;;;;14.13;4.15;;;;;;;-6.20;100.00;102677.56;6221310;23;20019;-92
2024/01/10 03:31:35;;;;;;;9.40;3.95;;;;;;;-6.24;100.00;102675.72;6195870;23;20452;-91
2024/01/10 03:34:01;;;;;;;8.32;4.07;;;;;;;-6.28;100.00;102669.41;6195819;23;20008;-91
2024/01/10 03:36:27;;;;;;;12.38;4.50;;;;;;;-6.27;100.00;102660.56;6221233;23;20020;-91
2024/01/10 03:38:54;;;;;;;12.00;4.78;;;;;;;-6.18;100.00;102663.41;6196137;23;20020;-92
2024/01/10 03:41:20;;;;;;;9.85;4.53;;;;;;;-6.13;100.00;102667.06;6221125;23;20034;-91
2024/01/10 03:43:46;;;;;;;8.75;4.10;;;;;;;-6.10;100.00;102660.88;6222424;23;20000;-91
2024/01/10 03:46:12;;;;;;;10.52;4.15;;;;;;;-6.12;100.00;102658.19;6225780;23;20019;-92
2024/01/10 03:48:47;;;;;;;10.57;4.47;;;;;;;-6.09;100.00;102662.69;6204488;23;20386;-91
2024/01/10 03:51:18;;;;;;;9.43;4.22;;;;;;;-5.97;100.00;102660.25;6232842;23;19999;-92
2024/01/10 03:53:44;;;;;;;10.40;4.20;;;;;;;-5.99;100.00;102655.75;6207748;23;20015;-92
2024/01/10 03:56:10;;;;;;;11.18;4.28;;;;;;;-5.97;100.00;102654.94;6234680;23;20037;-91
2024/01/10 03:58:35;;;;;;;10.25;4.10;;;;;;;-6.00;100.00;102657.53;6232408;23;20000;-92
2024/01/10 04:01:08;;;;;;;14.30;4.38;;;;;;;-5.99;100.00;102658.41;6174718;23;20095;-92
2024/01/10 04:03:35;;;;;;;9.68;4.30;;;;;;;-5.96;100.00;102658.47;6224339;23;20008;-92
2024/01/10 04:06:01;;;;;;;10.68;4.05;;;;;;;-6.00;100.00;102648.63;6174828;23;20066;-92
2024/01/10 04:08:27;;;;;;;12.90;4.03;;;;;;;-5.99;100.00;102639.75;6198890;23;20099;-92
2024/01/10 04:10:52;;;;;;;11.00;4.40;;;;;;;-6.00;100.00;102653.94;6199409;23;20039;-92
2024/01/10 04:13:18;;;;;;;9.52;4.10;;;;;;;-5.99;100.00;102650.41;6180693;23;20123;-92
2024/01/10 04:15:43;;;;;;;16.02;5.18;;;;;;;-6.04;100.00;102657.44;6185129;23;20008;-92
2024/01/10 04:18:09;;;;;;;14.27;5.47;;;;;;;-6.04;100.00;102649.44;6233931;23;20039;-92
2024/01/10 04:20:34;;;;;;;12.05;4.18;;;;;;;-6.11;100.00;102646.66;6207241;23;20035;-91
2024/01/10 04:22:59;;;;;;;12.13;4.13;;;;;;;-6.09;100.00;102652.00;6210413;23;20004;-93
2024/01/10 04:25:25;;;;;;;12.27;4.43;;;;;;;-6.16;100.00;102647.44;6186224;23;20008;-92
2024/01/10 04:27:50;;;;;;;10.43;4.50;;;;;;;-6.18;100.00;102654.50;6177535;23;20004;-93
2024/01/10 04:30:16;;;;;;;11.57;4.95;;;;;;;-6.18;100.00;102650.09;6174688;23;20004;-93
2024/01/10 04:32:41;;;;;;;10.85;4.75;;;;;;;-6.24;100.00;102649.97;6199185;23;20011;-92
2024/01/10 04:35:07;;;;;;;13.35;4.75;;;;;;;-6.22;100.00;102658.00;6199227;23;20008;-91
2024/01/10 04:37:32;;;;;;;30.83;5.05;;;;;;;-6.24;100.00;102654.41;6174379;23;20008;-91
2024/01/10 04:39:58;;;;;;;10.95;4.93;;;;;;;-6.24;100.00;102663.28;6202153;23;20012;-92
2024/01/10 04:42:23;;;;;;;10.75;3.88;;;;;;;-6.27;100.00;102655.22;6207747;22;20046;-91
2024/01/10 04:44:49;;;;;;;14.25;5.68;;;;;;;-6.32;100.00;102648.91;6242871;23;20008;-91
2024/01/10 04:47:15;;;;;;;13.40;4.90;;;;;;;-6.30;100.00;102656.06;6205841;23;20008;-91
2024/01/10 04:49:40;;;;;;;11.63;4.40;;;;;;;-6.29;100.00;102651.63;6223902;23;20399;-91
2024/01/10 04:52:06;;;;;;;13.90;4.75;;;;;;;-6.31;100.00;102648.06;6198385;23;20030;-92
2024/01/10 04:54:31;;;;;;;10.85;4.82;;;;;;;-6.36;100.00;102639.97;6222875;23;20375;-91
2024/01/10 04:56:58;;;;;;;8.30;3.90;;;;;;;-6.32;100.00;102640.91;6197382;23;20016;-91
2024/01/10 04:59:23;;;;;;;14.30;4.63;;;;;;;-6.39;100.00;102625.69;6223356;23;20061;-91
2024/01/10 05:01:49;;;;;;;11.00;4.90;;;;;;;-6.41;100.00;102628.31;6196976;23;20012;-91
2024/01/10 05:04:14;;;;;;;8.82;4.25;;;;;;;-6.43;100.00;102637.13;6247215;23;20008;-91
2024/01/10 05:06:40;;;;;;;10.57;4.53;;;;;;;-6.42;100.00;102633.63;6196702;23;20028;-90
2024/01/10 05:09:06;;;;;;;14.15;4.85;;;;;;;-6.48;100.00;102637.97;6196972;23;20012;-90
2024/01/10 05:11:32;;;;;;;12.27;5.13;;;;;;;-6.43;100.00;102634.47;6198628;23;20026;-90
2024/01/10 05:13:57;;;;;;;10.40;4.38;;;;;;;-6.50;100.00;102639.66;6196802;23;20000;-89
2024/01/10 05:16:23;;;;;;;10.75;4.22;;;;;;;-6.54;100.00;102629.84;6222149;23;20019;-89
2024/01/10 05:18:48;;;;;;;11.73;4.88;;;;;;;-6.55;100.00;102644.00;6222020;23;20008;-88
2024/01/10 05:21:14;;;;;;;13.30;4.72;;;;;;;-6.59;100.00;102641.25;6195588;23;20027;-88
2024/01/10 05:23:40;;;;;;;12.15;5.57;;;;;;;-6.62;100.00;102644.75;6247039;22;20000;-88
2024/01/10 05:26:09;;;;;;;11.18;5.47;;;;;;;-6.58;100.00;102632.41;6220306;23;20601;-87
2024/01/10 05:28:40;;;;;;;11.38;4.72;;;;;;;-6.50;100.00;102645.00;6195150;23;20011;-89
2024/01/10 05:31:06;;;;;;;9.77;4.30;;;;;;;-6.60;100.00;102642.13;6247608;22;20388;-90
2024/01/10 05:33:31;;;;;;;12.63;4.50;;;;;;;-6.63;100.00;102645.63;6197775;23;20004;-90
2024/01/10 05:35:58;;;;;;;8.85;4.60;;;;;;;-6.66;100.00;102641.16;6198316;23;20016;-88
2024/01/10 05:38:23;;;;;;;9.32;4.88;;;;;;;-6.65;100.00;102647.34;6224437;23;20038;-95
2024/01/10 05:40:49;;;;;;;13.05;5.47;;;;;;;-6.61;100.00;102632.34;6200427;23;20008;-94
2024/01/10 05:43:15;;;;;;;10.23;5.10;;;;;;;-6.64;100.00;102641.16;6204014;23;20012;-94
2024/01/10 05:45:40;;;;;;;13.10;4.53;;;;;;;-6.66;100.00;102638.47;6198256;23;20023;-90
2024/01/10 05:48:07;;;;;;;11.27;5.07;;;;;;;-6.73;100.00;102631.22;6220912;23;20011;-88
2024/01/10 05:50:32;;;;;;;12.82;4.88;;;;;;;-6.67;100.00;102633.13;6195790;23;20016;-88
2024/01/10 05:52:58;;;;;;;12.50;4.88;;;;;;;-6.66;100.00;102643.81;6196176;23;20014;-87
2024/01/10 05:55:23;;;;;;;15.82;5.10;;;;;;;-6.67;100.00;102639.34;6222280;23;20071;-92
2024/01/10 05:57:50;;;;;;;12.40;5.07;;;;;;;-6.70;100.00;102638.38;6221913;23;20069;-91
2024/01/10 06:00:16;;;;;;;19.60;5.25;;;;;;;-6.72;100.00;102646.34;6222527;23;20012;-92
2024/01/10 06:02:42;;;;;;;10.80;4.57;;;;;;;-6.73;100.00;102646.31;6198358;23;20023;-91
2024/01/10 06:05:10;;;;;;;12.98;5.07;;;;;;;-6.79;100.00;102632.84;6246996;23;20004;-91
2024/01/10 06:07:40;;;;;;;13.25;4.97;;;;;;;-6.87;100.00;102636.25;6248740;23;20317;-91
2024/01/10 06:10:06;;;;;;;18.65;4.47;;;;;;;-6.83;100.00;102631.88;6199528;23;20428;-91
2024/01/10 06:12:32;;;;;;;16.35;5.65;;;;;;;-6.83;100.00;102631.88;6249202;23;20000;-90
2024/01/10 06:14:57;;;;;;;12.68;5.68;;;;;;;-7.04;100.00;102606.59;6223712;23;20016;-94
2024/01/10 06:17:23;;;;;;;12.65;4.65;;;;;;;-6.97;100.00;102617.38;6223802;23;20011;-94
2024/01/10 06:19:49;;;;;;;12.30;5.07;;;;;;;-6.88;100.00;102630.91;6224270;23;20047;-94
2024/01/10 06:22:16;;;;;;;11.75;4.50;;;;;;;-6.90;100.00;102633.53;6224543;23;20008;-94
2024/01/10 06:24:42;;;;;;;15.23;5.40;;;;;;;-6.85;100.00;102634.50;6225048;23;20008;-96
2024/01/10 06:27:08;;;;;;;11.70;4.57;;;;;;;-6.88;100.00;102631.78;6249495;23;20007;-94
2024/01/10 06:29:33;;;;;;;12.00;5.22;;;;;;;-6.86;100.00;102627.38;6199708;23;20004;-94
2024/01/10 06:32:01;;;;;;;15.00;6.38;;;;;;;-6.95;100.00;102621.88;6223614;23;20012;-94
2024/01/10 06:34:29;;;;;;;17.13;5.50;;;;;;;-6.86;100.00;102639.81;6199128;23;20444;-94
2024/01/10 06:36:54;;;;;;;15.32;5.80;;;;;;;-6.78;100.00;102637.31;6201261;23;20026;-93
2024/01/10 06:39:20;;;;;;;13.95;6.10;;;;;;;-6.88;100.00;102625.56;6229079;23;20071;-94
2024/01/10 06:41:49;;;;;;;16.10;6.25;;;;;;;-6.84;100.00;102630.09;6213093;23;20042;-93
2024/01/10 06:44:17;;;;;;;27.40;6.15;;;;;;;-6.87;100.00;102625.59;6210889;23;20048;-94
2024/01/10 06:46:44;;;;;;;13.10;4.53;;;;;;;-6.88;100.00;102629.13;6215968;23;20012;-94
2024/01/10 06:49:11;;;;;;;11.70;5.00;;;;;;;-6.98;100.00;102619.16;6191286;23;20020;-95
2024/01/10 06:51:42;;;;;;;15.30;5.20;;;;;;;-7.00;100.00;102622.63;6193423;23;20095;-95
2024/01/10 06:54:08;;;;;;;12.13;5.55;;;;;;;-6.88;100.00;102637.09;6242489;23;20004;-94
2024/01/10 06:56:34;;;;;;;16.70;6.15;;;;;;;-6.95;100.00;102640.50;6222695;22;20016;-94
2024/01/10 06:59:01;;;;;;;15.40;5.28;;;;;;;-6.91;100.00;102642.38;6197780;22;20055;-94
2024/01/10 07:01:29;;;;;;;16.25;5.47;;;;;;;-6.86;100.00;102648.69;6222216;23;20018;-94
2024/01/10 07:04:08;;;;;;;13.68;5.72;;;;;;;-6.86;100.00;102651.34;6210070;23;20008;-96
2024/01/10 07:06:34;;;;;;;12.35;4.78;;;;;;;-6.94;100.00;102628.09;6237861;23;20000;-96
2024/01/10 07:09:00;;;;;;;11.30;4.93;;;;;;;-6.94;100.00;102626.31;6205224;23;20035;-96
2024/01/10 07:11:28;;;;;;;13.27;5.68;;;;;;;-6.87;100.00;102630.94;6232928;23;20008;-95
2024/01/10 07:13:59;;;;;;;12.25;5.97;;;;;;;-6.97;100.00;102612.94;6179679;23;20004;-96
2024/01/10 07:16:28;;;;;;;14.80;5.88;;;;;;;-6.89;100.00;102599.81;6209095;23;20099;-95
2024/01/10 07:18:56;;;;;;;11.10;4.68;;;;;;;-6.85;100.00;102622.97;6230659;23;20004;-93
2024/01/10 07:21:25;;;;;;;12.85;4.82;;;;;;;-6.90;100.00;102620.22;6228101;23;20000;-91
2024/01/10 07:23:52;;;;;;;16.02;5.05;;;;;;;-6.89;100.00;102611.34;6201042;23;20046;-91
2024/01/10 07:26:17;;;;;;;14.32;5.57;;;;;;;-6.82;100.00;102625.72;6174567;23;20012;-89
2024/01/10 07:28:44;;;;;;;14.25;5.57;;;;;;;-6.84;100.00;102630.09;6175339;23;20015;-92
2024/01/10 07:31:12;;;;;;;10.68;4.75;;;;;;;-6.75;100.00;102632.06;6176861;23;20011;-93
2024/01/10 07:33:38;;;;;;;11.85;4.93;;;;;;;-6.84;100.00;102622.09;6230210;23;20004;-87
2024/01/10 07:36:04;;;;;;;13.02;4.80;;;;;;;-6.74;100.00;102621.44;6187099;23;20066;-94
2024/01/10 07:38:31;;;;;;;15.90;5.80;;;;;;;-6.75;100.00;102606.31;6209548;23;20087;-92
2024/01/10 07:40:59;;;;;;;13.50;5.28;;;;;;;-6.72;100.00;102605.47;6215682;23;20012;-92
2024/01/10 07:43:28;;;;;;;13.57;5.53;;;;;;;-6.64;100.00;102617.19;6261175;23;20016;-93
2024/01/10 07:45:54;;;;;;;16.13;5.78;;;;;;;-6.57;100.00;102604.91;6242103;23;20012;-92
2024/01/10 07:48:20;;;;;;;8.88;4.53;;;;;;;-6.57;100.00;102612.91;6242674;23;20023;-92
2024/01/10 07:50:49;;;;;;;16.05;6.22;;;;;;;-6.60;100.00;102611.06;6244559;23;19995;-89
2024/01/10 07:53:17;;;;;;;15.65;6.30;;;;;;;-6.51;100.00;102616.59;6243885;23;20011;-94
2024/01/10 07:55:44;;;;;;;21.23;7.57;;;;;;;-6.37;100.00;102621.28;6244362;23;20008;-90
2024/01/10 07:58:11;;;;;;;15.80;6.43;;;;;;;-6.41;100.00;102627.41;6244748;23;20008;-95
2024/01/10 08:01:10;;;;;;;16.05;6.10;;;;;;;-6.52;100.00;102609.44;6241261;22;20008;-96
2024/01/10 08:03:37;;;;;;;11.55;5.03;;;;;;;-6.42;100.00;102606.97;6258607;22;20000;-96
2024/01/10 08:06:03;;;;;;;11.23;4.53;;;;;;;-6.41;100.00;102612.34;6238457;23;20016;-95
2024/01/10 08:08:31;;;;;;;19.88;6.22;;;;;;;-6.28;100.00;102627.69;6205267;23;20008;-95
2024/01/10 08:11:01;;;;;;;15.85;5.65;;;;;;;-6.34;100.00;102608.03;6228761;23;20003;-95
2024/01/10 08:13:28;;;;;;;16.80;6.30;;;;;;;-6.23;100.00;102625.13;6254747;23;20008;-96
2024/01/10 08:15:55;;;;;;;18.63;7.28;;;;;;;-6.30;100.00;102612.53;6252983;23;20107;-96
2024/01/10 08:18:21;;;;;;;15.27;5.28;;;;;;;-6.20;100.00;102630.47;6228756;23;20079;-96
2024/01/10 08:21:09;;;;;;;19.75;6.10;;;;;;;-6.20;100.00;102627.81;6235568;23;20015;-96
2024/01/10 08:23:37;;;;;;;15.80;6.50;;;;;;;-6.29;100.00;102609.00;6252542;23;20004;-96
2024/01/10 08:26:08;;;;;;;14.30;5.80;;;;;;;-6.18;100.00;102633.16;6253604;23;20004;-95
2024/01/10 08:28:34;;;;;;;14.20;6.18;;;;;;;-6.13;100.00;102621.75;6226974;23;20012;-95
2024/01/10 08:31:01;;;;;;;17.73;7.13;;;;;;;-6.08;100.00;102634.25;6229258;23;20003;-96
2024/01/10 08:33:27;;;;;;;19.88;7.43;;;;;;;-6.08;100.00;102637.84;6202073;23;20008;-95
2024/01/10 08:35:57;;;;;;;18.67;7.15;;;;;;;-6.09;100.00;102625.34;6203979;23;20031;-95
2024/01/10 08:38:24;;;;;;;15.27;5.88;;;;;;;-5.99;100.00;102631.75;6231310;23;20008;-95
2024/01/10 08:40:54;;;;;;;18.35;6.75;;;;;;;-6.01;100.00;102631.72;6207941;23;20006;-96
2024/01/10 08:43:21;;;;;;;17.48;6.93;;;;;;;-5.95;100.00;102622.91;6233004;23;20031;-96
2024/01/10 08:45:47;;;;;;;15.80;6.22;;;;;;;-5.80;100.00;102644.50;6255184;23;20011;-96
2024/01/10 08:48:13;;;;;;;16.23;5.90;;;;;;;-5.85;100.00;102630.22;6257018;23;20015;-96
2024/01/10 08:50:40;;;;;;;19.13;6.72;;;;;;;-5.75;100.00;102637.50;6261857;23;20000;-96
2024/01/10 08:53:07;;;;;;;22.40;7.70;;;;;;;-5.72;100.00;102640.22;6260851;22;20004;-96
2024/01/10 08:55:36;;;;;;;20.08;6.32;;;;;;;-5.61;100.00;102637.72;6238512;23;20007;-96
2024/01/10 08:58:03;;;;;;;18.35;6.68;;;;;;;-5.59;100.00;102641.31;6260760;23;20022;-96
2024/01/10 09:00:31;;;;;;;15.68;6.55;;;;;;;-5.57;100.00;102628.00;6206780;23;20016;-96
2024/01/10 09:03:01;;;;;;;19.45;7.18;;;;;;;-5.46;100.00;102639.75;6261985;23;20268;-96
2024/01/10 09:05:27;;;;;;;20.63;7.10;;;;;;;-5.37;100.00;102647.88;6232096;23;20040;-96
2024/01/10 09:07:54;;;;;;;18.55;7.13;;;;;;;-5.32;100.00;102647.09;6217537;22;20055;-96
2024/01/10 09:10:21;;;;;;;16.35;6.70;;;;;;;-5.25;100.00;102647.19;6273522;22;19996;-96
2024/01/10 09:12:47;;;;;;;18.35;7.53;;;;;;;-5.33;100.00;102634.59;6245413;23;20015;-96
2024/01/10 09:15:14;;;;;;;26.27;7.30;;;;;;;-5.15;100.00;102658.00;6242131;23;20015;-95
2024/01/10 09:17:42;;;;;;;15.88;7.18;;;;;;;-5.19;100.00;102636.59;6258849;22;20000;-96
2024/01/10 09:20:16;;;;;;;21.25;7.28;;;;;;;-5.06;100.00;102650.16;6260100;23;20015;-96
2024/01/10 09:22:44;;;;;;;21.05;8.52;;;;;;;-5.00;100.00;102658.22;6272860;22;20000;-96
2024/01/10 09:25:12;;;;;;;19.50;8.57;;;;;;;-4.87;100.00;102660.22;6273421;22;20022;-96
2024/01/10 09:27:43;;;;;;;19.63;7.68;;;;;;;-4.80;100.00;102648.72;6249425;22;19996;-96
2024/01/10 09:30:12;;;;;;;24.92;7.97;;;;;;;-4.82;100.00;102654.91;6225681;22;19996;-96
2024/01/10 09:32:41;;;;;;;22.13;7.95;;;;;;;-4.78;100.00;102647.88;6274170;22;20012;-96
2024/01/10 09:35:09;;;;;;;26.63;8.57;;;;;;;-4.67;100.00;102657.81;6224207;22;20007;-96
2024/01/10 09:37:49;;;;;;;25.50;9.88;;;;;;;-4.63;100.00;102659.63;6250150;22;19992;-96
2024/01/10 09:40:16;;;;;;;13.70;6.97;;;;;;;-4.65;100.00;102640.00;6249579;22;20016;-96
2024/01/10 09:42:55;;;;;;;25.95;9.23;;;;;;;-4.41;100.00;102646.56;6223931;22;20060;-91
2024/01/10 09:45:37;;;;;;;24.00;9.25;;;;;;;-4.36;100.00;102639.50;6273966;22;20016;-96
2024/01/10 09:48:33;;;;;;;18.05;7.82;;;;;;;-4.27;100.00;102652.06;6275263;22;20000;-96
2024/01/10 11:00:27;;;;;;;23.85;9.82;;;;;;;-2.01;96.24;102623.19;6246042;22;20024;-91
2024/01/10 11:02:57;;;;;;;30.00;9.52;;;;;;;-1.91;97.27;102624.09;6192781;23;20044;-91
2024/01/10 11:05:25;;;;;;;28.23;10.32;;;;;;;-1.95;95.61;102630.34;6192081;23;20000;-91
2024/01/10 11:07:53;;;;;;;24.70;9.52;;;;;;;-1.69;95.16;102633.97;6166519;23;20012;-92
2024/01/10 11:10:24;;;;;;;34.70;10.57;;;;;;;-1.67;96.10;102634.88;6194836;23;20009;-92
2024/01/10 11:13:35;;;;;;;28.42;11.02;;;;;;;-1.64;94.73;102630.38;6190773;23;20009;-92
2024/01/10 11:16:35;;;;;;;30.85;11.10;;;;;;;-2.03;94.69;102630.34;6156968;23;20391;-92
2024/01/10 11:19:12;;;;;;;30.17;10.40;;;;;;;-1.87;93.54;102623.19;6216625;23;20004;-92
2024/01/10 11:22:03;;;;;;;25.48;10.52;;;;;;;-1.55;95.65;102619.66;6222285;23;20012;-92
2024/01/10 11:24:29;;;;;;;26.38;10.05;;;;;;;-1.49;94.96;102612.47;6217018;23;20503;-92
2024/01/10 11:27:15;;;;;;;25.23;10.20;;;;;;;-1.88;95.03;102621.44;6217878;23;20000;-93
2024/01/10 11:29:42;;;;;;;23.52;11.18;;;;;;;-1.87;95.79;102618.75;6169081;23;20202;-92
2024/01/10 11:32:14;;;;;;;27.08;10.00;;;;;;;-1.53;94.75;102616.06;6182076;23;20008;-91
2024/01/10 11:34:58;;;;;;;26.37;11.07;;;;;;;-1.43;95.24;102619.63;6205046;23;20024;-92
2024/01/10 11:37:29;;;;;;;23.90;10.68;;;;;;;-1.59;94.96;102604.41;6219544;23;20004;-92
2024/01/10 11:39:55;;;;;;;28.50;10.85;;;;;;;-1.57;94.08;102603.53;6191585;23;20070;-92
2024/01/10 11:42:47;;;;;;;27.60;11.07;;;;;;;-1.81;96.01;102604.41;6166366;23;20379;-92
2024/01/10 11:45:36;;;;;;;24.15;10.02;;;;;;;-1.95;95.03;102607.09;6203486;23;20070;-92
2024/01/10 11:48:01;;;;;;;25.85;10.30;;;;;;;-1.88;94.36;102605.31;6178599;23;20020;-92
2024/01/10 11:50:31;;;;;;;24.25;10.88;;;;;;;-1.93;94.54;102605.31;6191553;23;20012;-92
2024/01/10 11:52:56;;;;;;;32.47;11.57;;;;;;;-1.88;95.23;102597.28;6215737;23;20012;-92
2024/01/10 11:55:51;;;;;;;28.95;10.32;;;;;;;-1.82;95.07;102608.00;6190527;23;20598;-92
2024/01/10 11:58:17;;;;;;;22.75;10.10;;;;;;;-1.71;95.29;102600.84;6190687;23;20012;-92
2024/01/10 12:00:42;;;;;;;33.45;11.23;;;;;;;-1.59;94.36;102599.03;6160800;23;20043;-92
2024/01/10 12:03:08;;;;;;;28.77;11.02;;;;;;;-1.58;95.84;102604.41;6186656;23;20016;-96
2024/01/10 12:05:35;;;;;;;25.70;10.27;;;;;;;-1.48;95.30;102598.16;6164495;23;19997;-96
2024/01/10 12:08:07;;;;;;;29.25;11.93;;;;;;;-1.59;95.78;102599.97;6199921;23;20013;-96
2024/01/10 12:10:36;;;;;;;32.45;11.55;;;;;;;-1.78;96.68;102598.16;6218232;23;20104;-96
2024/01/10 12:13:03;;;;;;;33.65;11.70;;;;;;;-1.66;95.06;102590.09;6208379;23;20017;-96
2024/01/10 12:15:30;;;;;;;31.15;10.85;;;;;;;-1.75;96.57;102579.38;6188818;23;20056;-96
2024/01/10 12:17:55;;;;;;;24.67;10.98;;;;;;;-1.92;95.65;102592.78;6214587;23;19996;-96
2024/01/10 12:20:21;;;;;;;23.67;10.15;;;;;;;-1.96;95.08;102588.31;6215016;23;20008;-96
2024/01/10 12:22:47;;;;;;;21.85;10.45;;;;;;;-1.89;95.08;102593.66;6208051;23;20442;-96